createdAt,value
2023-03-02T00:00:34.860Z,-23225.72
2023-03-02T00:02:40.715Z,-23227.16
2023-03-02T00:04:47.758Z,-23226.34
2023-03-02T00:06:51.019Z,-23226.81
2023-03-02T00:08:53.934Z,-23224.13
2023-03-02T00:10:57.622Z,-23222.69
2023-03-02T00:13:00.586Z,-23224.75
2023-03-02T00:15:05.186Z,-23223.63
2023-03-02T00:17:08.344Z,-23222.50
2023-03-02T00:19:11.000Z,-23222.03
2023-03-02T00:21:13.697Z,-23221.88
2023-03-02T00:23:16.884Z,-23220.94
2023-03-02T00:25:20.093Z,-23219.00
2023-03-02T00:27:23.463Z,-23217.56
2023-03-02T00:29:26.268Z,-23218.06
2023-03-02T00:31:30.532Z,-23216.44
2023-03-02T00:33:33.504Z,-23215.81
2023-03-02T00:35:39.016Z,-23217.09
2023-03-02T00:37:41.816Z,-23217.25
2023-03-02T00:39:44.622Z,-23214.53
2023-03-02T00:41:48.648Z,-23212.94
2023-03-02T00:43:51.818Z,-23212.00
2023-03-02T00:45:54.784Z,-23211.34
2023-03-02T00:47:58.800Z,-23210.56
2023-03-02T00:50:02.093Z,-23209.13
2023-03-02T00:52:04.942Z,-23206.25
2023-03-02T00:54:07.645Z,-23204.47
2023-03-02T00:56:10.512Z,-23204.31
2023-03-02T00:58:13.203Z,-23203.69
2023-03-02T01:00:16.566Z,-23201.44
2023-03-02T01:02:21.525Z,-23200.97
2023-03-02T01:04:29.637Z,-23200.00
2023-03-02T01:06:32.730Z,-23200.16
2023-03-02T01:08:37.802Z,-23200.00
2023-03-02T01:10:40.899Z,-23199.84
2023-03-02T01:12:43.640Z,-23199.53
2023-03-02T01:14:48.412Z,-23198.25
2023-03-02T01:16:51.318Z,-23197.47
2023-03-02T01:18:54.058Z,-23197.63
2023-03-02T01:21:03.832Z,-23197.94
2023-03-02T01:23:06.702Z,-23197.63
2023-03-02T01:25:09.624Z,-23197.94
2023-03-02T01:27:12.736Z,-23197.78
2023-03-02T01:29:15.488Z,-23197.63
2023-03-02T01:31:18.140Z,-23197.63
2023-03-02T01:33:21.363Z,-23197.78
2023-03-02T01:35:24.140Z,-23197.47
2023-03-02T01:37:28.246Z,-23196.66
2023-03-02T01:39:33.904Z,-23195.22
2023-03-02T01:41:36.600Z,-23194.41
2023-03-02T01:43:39.901Z,-23193.63
2023-03-02T01:45:51.721Z,-23193.16
2023-03-02T01:47:54.610Z,-23191.88
2023-03-02T01:50:01.493Z,-23191.88
2023-03-02T01:52:04.542Z,-23190.44
2023-03-02T01:54:17.129Z,-23191.22
2023-03-02T01:56:25.041Z,-23189.94
2023-03-02T01:58:29.777Z,-23189.00
2023-03-02T02:00:36.406Z,-23188.84
2023-03-02T02:02:41.988Z,-23187.56
2023-03-02T02:04:48.330Z,-23187.88
2023-03-02T02:06:56.686Z,-23186.59
2023-03-02T02:09:02.253Z,-23186.13
2023-03-02T02:11:07.011Z,-23185.47
2023-03-02T02:13:11.596Z,-23184.53
2023-03-02T02:15:14.327Z,-23183.25
2023-03-02T02:17:18.659Z,-23183.09
2023-03-02T02:19:36.420Z,-23182.28
2023-03-02T02:21:39.169Z,-23184.34
2023-03-02T02:23:50.273Z,-23182.59
2023-03-02T02:26:11.504Z,-23183.88
2023-03-02T02:28:19.075Z,-23180.53
2023-03-02T02:30:23.080Z,-23178.94
2023-03-02T02:32:28.153Z,-23179.41
2023-03-02T02:34:35.555Z,-23181.16
2023-03-02T02:36:45.097Z,-23179.56
2023-03-02T02:38:51.080Z,-23180.06
2023-03-02T02:40:57.372Z,-23179.72
2023-03-02T02:43:01.620Z,-23178.75
2023-03-02T02:45:07.891Z,-23178.13
2023-03-02T02:47:18.291Z,-23177.31
2023-03-02T02:49:30.383Z,-23178.13
2023-03-02T02:51:34.418Z,-23181.16
2023-03-02T02:53:43.769Z,-23178.63
2023-03-02T02:55:48.325Z,-23179.09
2023-03-02T02:57:52.832Z,-23178.28
2023-03-02T02:59:59.749Z,-23177.16
2023-03-02T03:02:02.554Z,-23179.41
2023-03-02T03:04:07.216Z,-23176.22
2023-03-02T03:06:17.776Z,-23177.16
2023-03-02T03:08:59.056Z,-23176.38
2023-03-02T03:11:02.438Z,-23176.53
2023-03-02T03:13:05.323Z,-23175.88
2023-03-02T03:15:10.534Z,-23176.53
2023-03-02T03:17:13.927Z,-23176.53
2023-03-02T03:19:21.338Z,-23176.69
2023-03-02T03:21:24.282Z,-23174.94
2023-03-02T03:23:27.082Z,-23176.22
2023-03-02T03:25:29.776Z,-23178.13
2023-03-02T03:27:32.695Z,-23178.44
2023-03-02T03:29:37.070Z,-23178.13
2023-03-02T03:31:41.694Z,-23178.28
2023-03-02T03:33:44.722Z,-23176.22
2023-03-02T03:35:47.481Z,-23174.94
2023-03-02T03:37:51.737Z,-23172.53
2023-03-02T03:39:54.620Z,-23172.38
2023-03-02T03:41:57.471Z,-23171.72
2023-03-02T03:44:00.165Z,-23172.84
2023-03-02T03:46:02.899Z,-23170.94
2023-03-02T03:48:07.541Z,-23170.47
2023-03-02T03:50:11.393Z,-23171.41
2023-03-02T03:52:14.275Z,-23170.16
2023-03-02T03:54:17.071Z,-23170.47
2023-03-02T03:56:19.792Z,-23169.19
2023-03-02T03:58:22.521Z,-23168.53
2023-03-02T04:00:25.423Z,-23169.19
2023-03-02T04:02:28.129Z,-23169.97
2023-03-02T04:04:34.285Z,-23167.91
2023-03-02T04:06:37.117Z,-23168.88
2023-03-02T04:08:39.943Z,-23171.59
2023-03-02T04:10:43.062Z,-23168.88
2023-03-02T04:12:46.035Z,-23168.38
2023-03-02T04:14:48.783Z,-23167.59
2023-03-02T04:16:51.935Z,-23167.75
2023-03-02T04:18:54.795Z,-23166.00
2023-03-02T04:20:58.860Z,-23165.81
2023-03-02T04:27:24.631Z,-23165.19
2023-03-02T04:29:27.324Z,-23165.34
2023-03-02T04:31:31.299Z,-23165.66
2023-03-02T04:33:34.313Z,-23166.00
2023-03-02T04:35:37.047Z,-23165.03
2023-03-02T04:37:42.071Z,-23164.38
2023-03-02T04:39:51.249Z,-23163.75
2023-03-02T04:41:55.706Z,-23163.75
2023-03-02T04:43:58.500Z,-23163.09
2023-03-02T04:46:03.091Z,-23163.28
2023-03-02T04:48:06.368Z,-23162.00
2023-03-02T04:50:11.265Z,-23162.63
2023-03-02T04:52:16.934Z,-23161.50
2023-03-02T04:54:24.575Z,-23162.16
2023-03-02T04:56:27.659Z,-23162.31
2023-03-02T04:58:30.265Z,-23160.06
2023-03-02T05:00:33.978Z,-23160.56
2023-03-02T05:02:37.564Z,-23159.59
2023-03-02T05:04:42.299Z,-23159.13
2023-03-02T05:06:45.238Z,-23158.63
2023-03-02T05:08:47.908Z,-23160.88
2023-03-02T05:10:51.931Z,-23158.97
2023-03-02T05:13:01.631Z,-23159.91
2023-03-02T05:15:04.441Z,-23159.28
2023-03-02T05:17:07.025Z,-23160.22
2023-03-02T05:19:12.505Z,-23161.84
2023-03-02T05:21:16.664Z,-23161.19
2023-03-02T05:23:25.709Z,-23162.16
2023-03-02T05:25:31.329Z,-23160.22
2023-03-02T05:27:36.813Z,-23161.19
2023-03-02T05:29:39.476Z,-23163.44
2023-03-02T05:31:44.733Z,-23165.66
2023-03-02T05:33:47.730Z,-23163.75
2023-03-02T05:35:50.405Z,-23164.72
2023-03-02T05:37:53.042Z,-23166.94
2023-03-02T05:39:55.685Z,-23166.94
2023-03-02T05:42:00.123Z,-23168.53
2023-03-02T05:44:04.664Z,-23171.09
2023-03-02T05:46:07.628Z,-23172.38
2023-03-02T05:48:13.004Z,-23172.69
2023-03-02T05:50:16.031Z,-23174.28
2023-03-02T05:52:18.621Z,-23175.72
2023-03-02T05:54:21.260Z,-23176.53
2023-03-02T05:56:23.840Z,-23177.50
2023-03-02T05:58:26.461Z,-23177.50
2023-03-02T06:00:30.468Z,-23177.50
2023-03-02T06:02:33.167Z,-23179.72
2023-03-02T06:04:42.879Z,-23179.41
2023-03-02T06:06:45.552Z,-23179.09
2023-03-02T06:08:48.259Z,-23179.41
2023-03-02T06:10:51.599Z,-23178.63
2023-03-02T06:12:54.371Z,-23179.72
2023-03-02T06:14:56.987Z,-23180.38
2023-03-02T06:17:01.244Z,-23177.66
2023-03-02T06:19:04.327Z,-23180.84
2023-03-02T06:21:07.355Z,-23182.59
2023-03-02T06:23:11.342Z,-23181.31
2023-03-02T06:25:15.965Z,-23181.31
2023-03-02T06:27:18.648Z,-23182.44
2023-03-02T06:29:21.525Z,-23180.69
2023-03-02T06:31:24.134Z,-23181.00
2023-03-02T06:33:28.162Z,-23182.44
2023-03-02T06:35:30.909Z,-23182.44
2023-03-02T06:37:33.845Z,-23185.31
2023-03-02T06:39:36.517Z,-23183.41
2023-03-02T06:41:39.154Z,-23183.88
2023-03-02T06:43:41.876Z,-23186.75
2023-03-02T06:45:44.558Z,-23188.19
2023-03-02T06:47:47.198Z,-23187.06
2023-03-02T06:49:51.143Z,-23184.84
2023-03-02T06:51:53.729Z,-23182.91
2023-03-02T06:53:56.376Z,-23184.19
2023-03-02T06:55:59.058Z,-23184.03
2023-03-02T06:58:01.690Z,-23184.84
2023-03-02T07:00:10.020Z,-23183.25
2023-03-02T07:02:12.979Z,-23186.28
2023-03-02T07:04:15.577Z,-23184.19
2023-03-02T07:06:19.559Z,-23186.75
2023-03-02T07:08:22.198Z,-23186.75
2023-03-02T07:10:24.783Z,-23186.75
2023-03-02T07:12:27.377Z,-23189.00
2023-03-02T07:14:30.007Z,-23187.41
2023-03-02T07:16:35.077Z,-23189.16
2023-03-02T07:18:37.860Z,-23189.00
2023-03-02T07:20:40.546Z,-23193.94
2023-03-02T07:22:45.494Z,-23191.06
2023-03-02T07:24:48.285Z,-23192.50
2023-03-02T07:26:50.914Z,-23195.06
2023-03-02T07:28:53.490Z,-23196.66
2023-03-02T07:30:56.425Z,-23194.59
2023-03-02T07:32:59.182Z,-23195.38
2023-03-02T07:35:01.975Z,-23197.28
2023-03-02T07:37:04.725Z,-23195.69
2023-03-02T07:39:08.729Z,-23198.88
2023-03-02T07:41:12.307Z,-23194.59
2023-03-02T07:43:15.028Z,-23197.28
2023-03-02T07:45:20.199Z,-23198.25
2023-03-02T07:47:22.888Z,-23201.28
2023-03-02T07:49:25.478Z,-23203.03
2023-03-02T07:51:28.213Z,-23204.81
2023-03-02T07:53:31.021Z,-23203.03
2023-03-02T07:55:35.059Z,-23203.53
2023-03-02T07:57:37.986Z,-23209.13
2023-03-02T07:59:40.599Z,-23206.56
2023-03-02T08:01:43.272Z,-23207.84
2023-03-02T08:03:45.935Z,-23208.47
2023-03-02T08:05:48.534Z,-23206.88
2023-03-02T08:07:51.316Z,-23205.44
2023-03-02T08:09:53.996Z,-23209.91
2023-03-02T08:11:58.001Z,-23211.66
2023-03-02T08:14:01.590Z,-23209.91
2023-03-02T08:16:06.852Z,-23209.13
2023-03-02T08:18:09.516Z,-23209.44
2023-03-02T08:20:12.824Z,-23208.16
2023-03-02T08:22:15.468Z,-23207.84
2023-03-02T08:24:18.127Z,-23208.00
2023-03-02T08:26:21.658Z,-23218.38
2023-03-02T08:28:25.604Z,-23215.50
2023-03-02T08:30:28.302Z,-23215.81
2023-03-02T08:32:30.970Z,-23221.25
2023-03-02T08:34:33.570Z,-23223.16
2023-03-02T08:36:36.237Z,-23221.88
2023-03-02T08:38:38.913Z,-23227.31
2023-03-02T08:40:41.592Z,-23226.19
2023-03-02T08:42:44.253Z,-23233.03
2023-03-02T08:44:48.252Z,-23226.66
2023-03-02T08:46:51.507Z,-23241.03
2023-03-02T08:48:54.164Z,-23237.50
2023-03-02T08:50:58.164Z,-23244.84
2023-03-02T08:53:00.831Z,-23240.72
2023-03-02T08:55:04.267Z,-23249.00
2023-03-02T08:57:11.735Z,-23253.47
2023-03-02T08:59:14.642Z,-23254.44
2023-03-02T09:01:21.490Z,-23251.56
2023-03-02T09:03:24.127Z,-23267.81
2023-03-02T09:05:26.718Z,-23269.56
2023-03-02T09:07:30.760Z,-23272.13
2023-03-02T09:09:33.417Z,-23273.22
2023-03-02T09:11:36.234Z,-23256.81
2023-03-02T09:13:39.060Z,-23266.88
2023-03-02T09:15:41.705Z,-23267.50
2023-03-02T09:17:45.758Z,-23269.09
2023-03-02T09:19:48.595Z,-23279.78
2023-03-02T09:21:51.336Z,-23287.25
2023-03-02T09:23:57.900Z,-23281.84
2023-03-02T09:26:00.704Z,-23285.50
2023-03-02T09:28:03.297Z,-23289.19
2023-03-02T09:30:07.058Z,-23296.81
2023-03-02T09:32:09.744Z,-23283.44
2023-03-02T09:34:13.755Z,-23279.59
2023-03-02T09:36:23.127Z,-23290.44
2023-03-02T09:38:26.003Z,-23319.75
2023-03-02T09:40:29.530Z,-23308.91
2023-03-02T09:42:58.008Z,-23339.81
2023-03-02T09:45:19.035Z,-23341.06
2023-03-02T09:47:35.406Z,-23330.41
2023-03-02T09:49:53.714Z,-23331.22
2023-03-02T09:52:09.102Z,-23345.06
2023-03-02T09:54:14.255Z,-23328.50
2023-03-02T09:56:19.468Z,-23337.91
2023-03-02T09:58:25.576Z,-23318.78
2023-03-02T10:00:32.754Z,-23321.34
2023-03-02T10:02:39.013Z,-23304.78
2023-03-02T10:04:47.896Z,-23341.41
2023-03-02T10:06:56.846Z,-23344.25
2023-03-02T10:08:59.602Z,-23353.00
2023-03-02T10:11:10.374Z,-23342.03
2023-03-02T10:13:23.237Z,-23315.94
2023-03-02T10:15:36.694Z,-23319.75
2023-03-02T10:17:54.218Z,-23319.75
2023-03-02T10:20:04.067Z,-23343.94
2023-03-02T10:22:13.288Z,-23338.22
2023-03-02T10:24:25.494Z,-23336.63
2023-03-02T10:26:39.584Z,-23326.91
2023-03-02T10:28:49.337Z,-23311.31
2023-03-02T10:30:58.906Z,-23303.19
2023-03-02T10:33:10.614Z,-23321.34
2023-03-02T10:35:17.834Z,-23315.94
2023-03-02T10:37:24.957Z,-23320.22
2023-03-02T10:39:27.656Z,-23323.72
2023-03-02T10:41:33.972Z,-23320.72
2023-03-02T10:43:41.327Z,-23324.03
2023-03-02T10:45:43.933Z,-23326.13
2023-03-02T10:47:46.545Z,-23327.72
2023-03-02T10:49:49.729Z,-23317.19
2023-03-02T10:51:59.055Z,-23339.16
2023-03-02T10:54:06.942Z,-23362.41
2023-03-02T10:56:21.360Z,-23356.03
2023-03-02T10:58:27.532Z,-23337.56
2023-03-02T11:00:32.217Z,-23342.03
2023-03-02T11:02:37.426Z,-23338.84
2023-03-02T11:04:40.422Z,-23344.09
2023-03-02T11:06:43.171Z,-23365.25
2023-03-02T11:08:47.183Z,-23357.94
2023-03-02T11:10:58.241Z,-23383.88
2023-03-02T11:13:17.019Z,-23353.66
2023-03-02T11:15:25.521Z,-23344.25
2023-03-02T11:17:32.987Z,-23341.06
2023-03-02T11:19:38.542Z,-23346.97
2023-03-02T11:21:46.298Z,-23350.00
2023-03-02T11:24:01.467Z,-23366.22
2023-03-02T11:26:14.429Z,-23366.06
2023-03-02T11:28:27.769Z,-23351.09
2023-03-02T11:30:35.470Z,-23350.63
2023-03-02T11:32:42.872Z,-23367.50
2023-03-02T11:34:50.140Z,-23348.22
2023-03-02T11:37:02.409Z,-23337.56
2023-03-02T11:39:12.394Z,-23362.25
2023-03-02T11:41:27.279Z,-23377.34
2023-03-02T11:43:30.304Z,-23383.88
2023-03-02T11:45:37.778Z,-23378.63
2023-03-02T11:47:44.302Z,-23378.63
2023-03-02T11:49:54.764Z,-23374.50
2023-03-02T11:52:01.044Z,-23365.25
2023-03-02T11:54:12.949Z,-23369.41
2023-03-02T11:56:16.060Z,-23384.66
2023-03-02T11:58:21.390Z,-23389.91
2023-03-02T12:00:31.479Z,-23385.94
2023-03-02T12:02:34.262Z,-23384.97
2023-03-02T12:04:39.723Z,-23374.97
2023-03-02T12:06:44.047Z,-23382.59
2023-03-02T12:08:47.999Z,-23385.59
2023-03-02T12:11:00.802Z,-23389.75
2023-03-02T12:13:16.060Z,-23382.59
2023-03-02T12:15:35.980Z,-23400.22
2023-03-02T12:17:39.667Z,-23402.13
2023-03-02T12:19:45.085Z,-23391.00
2023-03-02T12:21:58.027Z,-23392.91
2023-03-02T12:24:03.892Z,-23411.03
2023-03-02T12:26:24.153Z,-23427.72
2023-03-02T12:28:30.533Z,-23433.28
2023-03-02T12:30:33.228Z,-23440.72
2023-03-02T12:32:36.011Z,-23424.69
2023-03-02T12:34:40.321Z,-23446.91
2023-03-02T12:36:44.880Z,-23428.19
2023-03-02T12:39:01.949Z,-23455.97
2023-03-02T12:41:22.172Z,-23461.97
2023-03-02T12:43:32.036Z,-23434.22
2023-03-02T12:45:48.764Z,-23469.13
2023-03-02T12:47:59.169Z,-23460.56
2023-03-02T12:50:05.202Z,-23451.50
2023-03-02T12:52:23.884Z,-23491.16
2023-03-02T12:54:28.792Z,-23474.66
2023-03-02T12:56:32.970Z,-23482.28
2023-03-02T12:58:35.642Z,-23447.53
2023-03-02T13:00:38.266Z,-23407.69
2023-03-02T13:02:48.315Z,-23405.16
2023-03-02T13:04:55.273Z,-23468.97
2023-03-02T13:06:57.964Z,-23501.13
2023-03-02T13:09:01.083Z,-23451.03
2023-03-02T13:11:04.858Z,-23437.88
2023-03-02T13:13:17.532Z,-23448.81
2023-03-02T13:15:20.494Z,-23494.00
2023-03-02T13:17:26.162Z,-23445.81
2023-03-02T13:19:30.638Z,-23435.66
2023-03-02T13:21:38.156Z,-23444.06
2023-03-02T13:23:47.581Z,-23474.97
2023-03-02T13:25:52.547Z,-23478.16
2023-03-02T13:27:57.536Z,-23461.66
2023-03-02T13:30:13.280Z,-23474.81
2023-03-02T13:32:21.925Z,-23484.50
2023-03-02T13:34:26.141Z,-23477.53
2023-03-02T13:36:31.798Z,-23499.88
2023-03-02T13:38:38.885Z,-23512.84
2023-03-02T13:40:44.664Z,-23500.81
2023-03-02T13:42:47.405Z,-23488.94
2023-03-02T13:44:50.094Z,-23472.75
2023-03-02T13:46:54.090Z,-23474.03
2023-03-02T13:49:09.122Z,-23508.09
2023-03-02T13:51:17.946Z,-23521.88
2023-03-02T13:53:20.951Z,-23546.25
2023-03-02T13:55:24.000Z,-23517.47
2023-03-02T13:57:31.219Z,-23471.03
2023-03-02T13:59:36.450Z,-23480.69
2023-03-02T14:01:41.337Z,-23505.56
2023-03-02T14:03:45.281Z,-23473.09
2023-03-02T14:05:47.981Z,-23452.31
2023-03-02T14:07:50.901Z,-23464.03
2023-03-02T14:09:53.825Z,-23473.88
2023-03-02T14:11:57.797Z,-23485.91
2023-03-02T14:14:02.057Z,-23468.50
2023-03-02T14:16:05.355Z,-23486.56
2023-03-02T14:18:31.865Z,-23468.00
2023-03-02T14:20:35.849Z,-23457.06
2023-03-02T14:22:38.909Z,-23474.97
2023-03-02T14:24:41.562Z,-23460.41
2023-03-02T14:26:46.344Z,-23459.91
2023-03-02T14:28:53.613Z,-23452.16
2023-03-02T14:31:02.741Z,-23437.41
2023-03-02T14:33:05.415Z,-23439.94
2023-03-02T14:35:11.560Z,-23440.56
2023-03-02T14:37:18.440Z,-23443.25
2023-03-02T14:39:23.803Z,-23443.75
2023-03-02T14:41:28.369Z,-23433.75
2023-03-02T14:43:31.005Z,-23432.31
2023-03-02T14:45:33.656Z,-23437.06
2023-03-02T14:47:36.231Z,-23438.34
2023-03-02T14:49:39.313Z,-23440.25
2023-03-02T14:51:45.027Z,-23455.63
2023-03-02T14:53:50.573Z,-23463.72
2023-03-02T14:55:53.203Z,-23461.50
2023-03-02T14:57:58.890Z,-23470.38
2023-03-02T15:00:01.568Z,-23447.22
2023-03-02T15:02:15.940Z,-23451.34
2023-03-02T15:04:25.432Z,-23457.38
2023-03-02T15:06:29.968Z,-23462.31
2023-03-02T15:08:32.585Z,-23459.91
2023-03-02T15:10:36.561Z,-23463.56
2023-03-02T15:12:39.173Z,-23468.16
2023-03-02T15:14:41.819Z,-23449.78
2023-03-02T15:16:44.457Z,-23454.53
2023-03-02T15:18:49.528Z,-23448.34
2023-03-02T15:20:52.105Z,-23444.84
2023-03-02T15:22:54.839Z,-23443.75
2023-03-02T15:24:57.460Z,-23446.91
2023-03-02T15:27:01.785Z,-23457.38
2023-03-02T15:29:04.403Z,-23451.84
2023-03-02T15:31:08.347Z,-23449.13
2023-03-02T15:33:10.995Z,-23449.28
2023-03-02T15:35:13.612Z,-23455.16
2023-03-02T15:37:16.323Z,-23446.75
2023-03-02T15:39:18.981Z,-23450.41
2023-03-02T15:41:21.687Z,-23449.13
2023-03-02T15:43:25.698Z,-23445.16
2023-03-02T15:45:28.854Z,-23450.72
2023-03-02T15:47:33.413Z,-23449.59
2023-03-02T15:49:36.054Z,-23439.59
2023-03-02T15:51:38.709Z,-23443.25
2023-03-02T15:53:41.626Z,-23443.25
2023-03-02T15:55:44.354Z,-23440.25
2023-03-02T15:57:47.014Z,-23441.19
2023-03-02T15:59:51.083Z,-23437.41
2023-03-02T16:01:54.710Z,-23432.94
2023-03-02T16:04:00.034Z,-23425.78
2023-03-02T16:06:03.217Z,-23431.34
2023-03-02T16:08:06.252Z,-23429.44
2023-03-02T16:10:15.001Z,-23431.03
2023-03-02T16:12:18.606Z,-23429.44
2023-03-02T16:14:21.268Z,-23430.72
2023-03-02T16:16:26.114Z,-23434.06
2023-03-02T16:18:29.021Z,-23426.13
2023-03-02T16:20:31.647Z,-23423.72
2023-03-02T16:22:34.288Z,-23420.88
2023-03-02T16:24:37.025Z,-23417.22
2023-03-02T16:26:39.955Z,-23417.06
2023-03-02T16:28:42.927Z,-23421.03
2023-03-02T16:30:46.173Z,-23416.09
2023-03-02T16:32:50.234Z,-23413.88
2023-03-02T16:34:55.089Z,-23415.00
2023-03-02T16:36:57.726Z,-23410.72
2023-03-02T16:39:00.393Z,-23407.84
2023-03-02T16:41:03.232Z,-23413.09
2023-03-02T16:43:08.746Z,-23408.16
2023-03-02T16:45:12.099Z,-23405.00
2023-03-02T16:47:14.718Z,-23404.69
2023-03-02T16:49:18.770Z,-23404.34
2023-03-02T16:51:22.550Z,-23399.91
2023-03-02T16:53:25.528Z,-23399.59
2023-03-02T16:55:28.510Z,-23398.66
2023-03-02T16:57:31.129Z,-23396.09
2023-03-02T16:59:33.707Z,-23396.56
2023-03-02T17:01:36.515Z,-23391.66
2023-03-02T17:03:39.380Z,-23392.13
2023-03-02T17:05:43.526Z,-23388.63
2023-03-02T17:07:46.440Z,-23391.00
2023-03-02T17:09:49.132Z,-23389.59
2023-03-02T17:11:51.708Z,-23392.13
2023-03-02T17:13:54.360Z,-23390.38
2023-03-02T17:15:58.122Z,-23390.69
2023-03-02T17:18:01.204Z,-23390.53
2023-03-02T17:20:03.878Z,-23387.03
2023-03-02T17:22:07.887Z,-23388.78
2023-03-02T17:24:10.765Z,-23389.75
2023-03-02T17:26:13.434Z,-23385.28
2023-03-02T17:28:16.727Z,-23383.06
2023-03-02T17:30:20.204Z,-23384.34
2023-03-02T17:32:24.275Z,-23381.78
2023-03-02T17:34:30.532Z,-23380.84
2023-03-02T17:36:36.524Z,-23381.78
2023-03-02T17:38:41.328Z,-23377.34
2023-03-02T17:40:44.333Z,-23378.31
2023-03-02T17:42:46.976Z,-23374.50
2023-03-02T17:44:49.675Z,-23371.94
2023-03-02T17:46:52.327Z,-23371.31
2023-03-02T17:48:56.584Z,-23366.84
2023-03-02T17:50:59.242Z,-23363.34
2023-03-02T17:53:02.979Z,-23359.38
2023-03-02T17:55:08.066Z,-23355.88
2023-03-02T17:57:11.825Z,-23356.03
2023-03-02T17:59:14.706Z,-23354.75
2023-03-02T18:01:17.334Z,-23354.59
2023-03-02T18:03:20.299Z,-23350.00
2023-03-02T18:05:23.208Z,-23350.00
2023-03-02T18:07:25.928Z,-23344.91
2023-03-02T18:09:28.579Z,-23337.25
2023-03-02T18:11:33.175Z,-23333.28
2023-03-02T18:13:35.915Z,-23331.22
2023-03-02T18:15:38.587Z,-23328.66
2023-03-02T18:17:41.479Z,-23327.38
2023-03-02T18:19:45.571Z,-23326.13
2023-03-02T18:21:48.437Z,-23326.13
2023-03-02T18:23:51.094Z,-23323.91
2023-03-02T18:25:53.740Z,-23318.97
2023-03-02T18:27:57.894Z,-23320.88
2023-03-02T18:30:00.691Z,-23319.91
2023-03-02T18:32:03.423Z,-23318.97
2023-03-02T18:34:06.136Z,-23319.09
2023-03-02T18:36:09.728Z,-23315.59
2023-03-02T18:38:12.353Z,-23309.25
2023-03-02T18:40:15.494Z,-23307.81
2023-03-02T18:42:18.245Z,-23306.06
2023-03-02T18:44:22.287Z,-23307.66
2023-03-02T18:46:27.216Z,-23305.59
2023-03-02T18:48:29.941Z,-23302.06
2023-03-02T18:50:32.566Z,-23303.19
2023-03-02T18:52:35.228Z,-23298.72
2023-03-02T18:54:38.706Z,-23297.28
2023-03-02T18:56:41.415Z,-23294.91
2023-03-02T18:58:44.903Z,-23296.19
2023-03-02T19:00:49.368Z,-23294.75
2023-03-02T19:02:52.340Z,-23295.06
2023-03-02T19:04:54.966Z,-23292.69
2023-03-02T19:07:00.664Z,-23294.44
2023-03-02T19:09:03.477Z,-23296.97
2023-03-02T19:11:06.884Z,-23294.44
2023-03-02T19:13:11.505Z,-23289.19
2023-03-02T19:15:14.482Z,-23286.78
2023-03-02T19:17:18.484Z,-23285.03
2023-03-02T19:19:21.263Z,-23285.34
2023-03-02T19:21:23.965Z,-23284.38
2023-03-02T19:23:26.648Z,-23282.63
2023-03-02T19:25:29.617Z,-23284.38
2023-03-02T19:27:32.371Z,-23283.13
2023-03-02T19:29:35.071Z,-23283.59
2023-03-02T19:31:39.013Z,-23282.16
2023-03-02T19:33:45.181Z,-23280.88
2023-03-02T19:35:47.883Z,-23280.56
2023-03-02T19:37:50.654Z,-23279.28
2023-03-02T19:39:53.358Z,-23279.13
2023-03-02T19:41:56.054Z,-23276.09
2023-03-02T19:43:59.031Z,-23275.63
2023-03-02T19:46:01.782Z,-23275.78
2023-03-02T19:48:05.788Z,-23273.22
2023-03-02T19:50:11.154Z,-23271.81
2023-03-02T19:52:13.802Z,-23271.16
2023-03-02T19:54:16.505Z,-23272.59
2023-03-02T19:56:20.949Z,-23270.38
2023-03-02T19:58:23.655Z,-23271.31
2023-03-02T20:00:27.549Z,-23269.25
2023-03-02T20:02:30.334Z,-23269.41
2023-03-02T20:04:33.612Z,-23267.19
2023-03-02T20:06:38.004Z,-23267.50
2023-03-02T20:08:40.703Z,-23266.38
2023-03-02T20:10:45.341Z,-23265.25
2023-03-02T20:12:48.131Z,-23266.06
2023-03-02T20:14:52.764Z,-23265.91
2023-03-02T20:16:55.590Z,-23262.56
2023-03-02T20:19:01.934Z,-23260.97
2023-03-02T20:21:05.029Z,-23262.41
2023-03-02T20:23:09.259Z,-23262.56
2023-03-02T20:25:12.780Z,-23262.06
2023-03-02T20:27:15.656Z,-23259.53
2023-03-02T20:29:18.482Z,-23259.03
2023-03-02T20:31:21.179Z,-23256.97
2023-03-02T20:33:26.930Z,-23254.44
2023-03-02T20:35:32.715Z,-23251.88
2023-03-02T20:37:35.495Z,-23250.44
2023-03-02T20:39:41.865Z,-23249.63
2023-03-02T20:41:45.380Z,-23248.38
2023-03-02T20:43:48.090Z,-23248.38
2023-03-02T20:45:51.250Z,-23245.50
2023-03-02T20:47:54.339Z,-23244.38
2023-03-02T20:49:57.103Z,-23244.84
2023-03-02T20:52:00.787Z,-23247.41
2023-03-02T20:54:04.743Z,-23244.69
2023-03-02T20:56:11.195Z,-23245.50
2023-03-02T20:58:14.355Z,-23245.50
2023-03-02T21:00:21.604Z,-23245.19
2023-03-02T21:02:24.464Z,-23245.81
2023-03-02T21:04:27.359Z,-23245.97
2023-03-02T21:06:33.300Z,-23243.56
2023-03-02T21:08:39.236Z,-23245.34
2023-03-02T21:10:43.519Z,-23243.91
2023-03-02T21:12:49.006Z,-23241.81
2023-03-02T21:14:51.848Z,-23241.34
2023-03-02T21:16:54.985Z,-23239.59
2023-03-02T21:18:57.669Z,-23241.19
2023-03-02T21:21:00.401Z,-23239.13
2023-03-02T21:23:03.218Z,-23238.47
2023-03-02T21:25:08.914Z,-23239.44
2023-03-02T21:27:11.717Z,-23241.19
2023-03-02T21:29:17.799Z,-23239.91
2023-03-02T21:31:21.141Z,-23239.59
2023-03-02T21:33:23.790Z,-23240.06
2023-03-02T21:35:26.579Z,-23241.34
2023-03-02T21:37:29.399Z,-23240.72
2023-03-02T21:39:32.203Z,-23240.88
2023-03-02T21:41:35.659Z,-23239.13
2023-03-02T21:43:38.434Z,-23237.34
2023-03-02T21:45:42.701Z,-23235.75
2023-03-02T21:47:46.104Z,-23236.09
2023-03-02T21:49:48.746Z,-23236.25
2023-03-02T21:51:51.432Z,-23234.97
2023-03-02T21:53:54.132Z,-23234.00
2023-03-02T21:55:56.739Z,-23234.00
2023-03-02T21:57:59.849Z,-23233.69
2023-03-02T22:00:04.642Z,-23228.91
2023-03-02T22:02:08.705Z,-23230.97
2023-03-02T22:04:11.400Z,-23232.09
2023-03-02T22:06:18.184Z,-23230.34
2023-03-02T22:08:21.777Z,-23231.13
2023-03-02T22:10:30.212Z,-23231.13
2023-03-02T22:12:32.885Z,-23229.53
2023-03-02T22:14:35.526Z,-23227.94
2023-03-02T22:16:39.432Z,-23228.09
2023-03-02T22:18:45.281Z,-23225.06
2023-03-02T22:20:49.957Z,-23223.63
2023-03-02T22:22:55.101Z,-23222.50
2023-03-02T22:24:57.704Z,-23225.06
2023-03-02T22:27:02.854Z,-23225.72
2023-03-02T22:29:14.134Z,-23226.81
2023-03-02T22:31:20.329Z,-23226.66
2023-03-02T22:33:25.892Z,-23228.41
2023-03-02T22:35:29.870Z,-23230.34
2023-03-02T22:37:35.691Z,-23230.66
2023-03-02T22:39:41.002Z,-23229.84
2023-03-02T22:41:44.883Z,-23231.47
2023-03-02T22:43:49.347Z,-23232.72
2023-03-02T22:45:52.879Z,-23235.13
2023-03-02T22:47:55.671Z,-23234.00
2023-03-02T22:50:01.583Z,-23236.09
2023-03-02T22:52:13.855Z,-23239.75
2023-03-02T22:54:23.459Z,-23240.72
2023-03-02T22:56:31.286Z,-23239.44
2023-03-02T22:58:46.383Z,-23242.63
2023-03-02T23:00:49.336Z,-23244.69
2023-03-02T23:02:54.350Z,-23243.41
2023-03-02T23:04:56.979Z,-23241.03
2023-03-02T23:07:02.595Z,-23238.78
2023-03-02T23:09:07.365Z,-23240.38
2023-03-02T23:11:17.188Z,-23241.03
2023-03-02T23:13:22.310Z,-23242.31
2023-03-02T23:15:25.030Z,-23244.06
2023-03-02T23:17:35.255Z,-23242.94
2023-03-02T23:19:37.903Z,-23244.84
2023-03-02T23:21:45.683Z,-23246.13
2023-03-02T23:23:49.644Z,-23243.56
2023-03-02T23:25:53.689Z,-23244.53
2023-03-02T23:27:56.342Z,-23244.22
2023-03-02T23:29:58.962Z,-23242.94
2023-03-02T23:32:01.747Z,-23244.53
2023-03-02T23:34:05.198Z,-23242.31
2023-03-02T23:36:08.442Z,-23240.06
2023-03-02T23:38:11.012Z,-23245.66
2023-03-02T23:40:13.978Z,-23243.09
2023-03-02T23:42:17.920Z,-23244.22
2023-03-02T23:44:20.767Z,-23248.03
2023-03-02T23:46:23.694Z,-23249.00
2023-03-02T23:48:26.364Z,-23243.09